Time;durP1;ratioP1;P1;durP2;ratioP2;P2;SDS_P1;SDS_P2;PMS_P1;PMS_P2;Temp;Humidity;BMP_temperature;BMP_pressure;BME280_temperature;BME280_humidity;BME280_pressure;Samples;Min_cycle;Max_cycle;Signal;HPM_P1;HPM_P2
2024/03/10 00:02:02;;;;;;;22.98;14.40;;;;;;;;;;5063708;28;20404;-73
2024/03/10 00:04:28;;;;;;;22.23;14.30;;;;;;;;;;5058852;28;20145;-73
2024/03/10 00:06:55;;;;;;;25.85;15.23;;;;;;;;;;5060287;28;20060;-74
2024/03/10 00:09:21;;;;;;;22.20;15.02;;;;;;;;;;5057251;28;20519;-73
2024/03/10 00:11:47;;;;;;;23.70;14.75;;;;;;;;;;5052278;28;20405;-72
2024/03/10 00:14:16;;;;;;;23.58;14.75;;;;;;;;;;5062040;28;20056;-73
2024/03/10 00:16:43;;;;;;;21.60;14.52;;;;;;;;;;5053768;28;20052;-74
2024/03/10 00:19:11;;;;;;;22.30;15.20;;;;;;;;;;5062715;28;20088;-74
2024/03/10 00:21:37;;;;;;;22.15;14.68;;;;;;;;;;5051859;28;20501;-73
2024/03/10 00:24:04;;;;;;;23.15;14.77;;;;;;;;;;5059275;28;20441;-72
2024/03/10 00:26:31;;;;;;;22.58;14.30;;;;;;;;;;5058648;28;20706;-73
2024/03/10 00:28:57;;;;;;;22.05;14.73;;;;;;;;;;5056981;28;20140;-73
2024/03/10 00:31:24;;;;;;;26.85;16.45;;;;;;;;;;5064933;28;20063;-73
2024/03/10 00:33:51;;;;;;;24.38;15.07;;;;;;;;;;5059601;28;20064;-74
2024/03/10 00:36:18;;;;;;;24.83;15.88;;;;;;;;;;5060371;28;20084;-74
2024/03/10 00:38:45;;;;;;;22.10;14.57;;;;;;;;;;5061284;28;20053;-74
2024/03/10 00:41:11;;;;;;;22.42;13.55;;;;;;;;;;5061428;28;20307;-74
2024/03/10 00:43:38;;;;;;;24.65;15.30;;;;;;;;;;5067366;28;20650;-74
2024/03/10 00:46:04;;;;;;;23.42;14.75;;;;;;;;;;5062597;28;20059;-73
2024/03/10 00:48:31;;;;;;;22.80;14.85;;;;;;;;;;5063701;28;20558;-74
2024/03/10 00:50:57;;;;;;;25.40;14.63;;;;;;;;;;5057542;28;20106;-74
2024/03/10 00:53:23;;;;;;;22.10;14.65;;;;;;;;;;5062039;28;20040;-74
2024/03/10 00:55:50;;;;;;;22.65;15.18;;;;;;;;;;5063550;28;20048;-73
2024/03/10 00:58:17;;;;;;;23.80;15.90;;;;;;;;;;5060590;28;20059;-74
2024/03/10 01:00:43;;;;;;;23.90;15.48;;;;;;;;;;5064990;28;20140;-74
2024/03/10 01:03:11;;;;;;;24.92;15.15;;;;;;;;;;5060511;28;20428;-73
2024/03/10 01:05:38;;;;;;;24.25;15.45;;;;;;;;;;5062579;28;20044;-75
2024/03/10 01:08:04;;;;;;;25.80;15.75;;;;;;;;;;5060622;28;20127;-75
2024/03/10 01:10:31;;;;;;;24.17;15.52;;;;;;;;;;5060037;28;20706;-75
2024/03/10 01:12:58;;;;;;;23.00;15.10;;;;;;;;;;5063803;28;20110;-75
2024/03/10 01:15:24;;;;;;;25.75;16.02;;;;;;;;;;5060727;28;20048;-75
2024/03/10 01:17:51;;;;;;;24.25;15.50;;;;;;;;;;5062663;28;20892;-75
2024/03/10 01:20:17;;;;;;;22.83;14.35;;;;;;;;;;5060221;28;20059;-75
2024/03/10 01:22:44;;;;;;;22.88;15.02;;;;;;;;;;5059330;28;20045;-75
2024/03/10 01:25:11;;;;;;;23.55;16.00;;;;;;;;;;5067284;28;20049;-74
2024/03/10 01:27:37;;;;;;;23.85;15.05;;;;;;;;;;5057160;28;20044;-75
2024/03/10 01:30:04;;;;;;;23.20;14.70;;;;;;;;;;5066745;28;20048;-74
2024/03/10 01:32:31;;;;;;;23.55;15.45;;;;;;;;;;5057822;28;20137;-75
2024/03/10 01:34:58;;;;;;;25.20;15.47;;;;;;;;;;5060466;28;20120;-75
2024/03/10 01:37:24;;;;;;;24.02;15.00;;;;;;;;;;5066099;28;20469;-75
2024/03/10 01:39:51;;;;;;;25.55;16.58;;;;;;;;;;5058296;28;20053;-75
2024/03/10 01:42:18;;;;;;;23.52;15.38;;;;;;;;;;5060181;28;20040;-75
2024/03/10 01:44:44;;;;;;;23.48;15.50;;;;;;;;;;5057793;28;20055;-75
2024/03/10 01:47:10;;;;;;;23.20;14.93;;;;;;;;;;5059440;28;20564;-74
2024/03/10 01:49:37;;;;;;;25.60;16.58;;;;;;;;;;5053253;28;20170;-74
2024/03/10 01:52:04;;;;;;;24.15;14.30;;;;;;;;;;5059398;28;20056;-75
2024/03/10 01:54:33;;;;;;;24.92;16.05;;;;;;;;;;5063817;28;20626;-76
2024/03/10 01:57:00;;;;;;;26.00;16.25;;;;;;;;;;5056656;28;20092;-75
2024/03/10 01:59:26;;;;;;;21.50;14.82;;;;;;;;;;5060029;28;21032;-75
2024/03/10 02:01:54;;;;;;;26.27;16.00;;;;;;;;;;5062629;28;20140;-75
2024/03/10 02:04:20;;;;;;;26.70;16.10;;;;;;;;;;5058481;28;20106;-75
2024/03/10 02:06:47;;;;;;;24.25;14.80;;;;;;;;;;5065673;28;20052;-74
2024/03/10 02:09:13;;;;;;;22.55;15.23;;;;;;;;;;5058081;28;20048;-74
2024/03/10 02:11:40;;;;;;;27.10;16.15;;;;;;;;;;5061090;28;20045;-74
2024/03/10 02:14:08;;;;;;;26.33;16.48;;;;;;;;;;5062435;28;20054;-74
2024/03/10 02:16:35;;;;;;;25.25;16.17;;;;;;;;;;5062812;28;20581;-74
2024/03/10 02:19:01;;;;;;;26.42;16.27;;;;;;;;;;5060302;28;20048;-74
2024/03/10 02:21:28;;;;;;;25.55;16.50;;;;;;;;;;5061702;28;20072;-74
2024/03/10 02:24:06;;;;;;;22.25;15.40;;;;;;;;;;5065647;28;20056;-74
2024/03/10 02:26:36;;;;;;;;;;;;;;;;;;5068950;28;20051;-75
2024/03/10 02:29:15;;;;;;;25.17;15.82;;;;;;;;;;5063674;28;19927;-74
2024/03/10 02:48:13;;;;;;;21.67;13.43;;;;;;;;;;5060798;28;20052;-75
2024/03/10 02:50:40;;;;;;;24.35;15.75;;;;;;;;;;5060028;28;20125;-75
2024/03/10 02:53:07;;;;;;;28.55;17.20;;;;;;;;;;5060881;28;20104;-74
2024/03/10 02:55:33;;;;;;;25.85;17.25;;;;;;;;;;5061124;28;20710;-74
2024/03/10 02:58:01;;;;;;;23.95;15.63;;;;;;;;;;5064847;28;20059;-75
2024/03/10 03:00:28;;;;;;;25.87;16.40;;;;;;;;;;5061583;28;20125;-74
2024/03/10 03:02:55;;;;;;;26.85;16.42;;;;;;;;;;5057803;28;20301;-74
2024/03/10 03:05:21;;;;;;;27.20;17.25;;;;;;;;;;5064745;28;20123;-74
2024/03/10 03:07:48;;;;;;;25.75;16.27;;;;;;;;;;5059819;28;20048;-74
2024/03/10 03:10:17;;;;;;;26.40;16.45;;;;;;;;;;5065759;28;20052;-74
2024/03/10 03:12:44;;;;;;;29.10;17.38;;;;;;;;;;5063318;28;20382;-74
2024/03/10 03:15:10;;;;;;;25.10;15.95;;;;;;;;;;5060163;28;20131;-74
2024/03/10 03:17:37;;;;;;;28.05;17.70;;;;;;;;;;5063663;28;20052;-75
2024/03/10 03:20:15;;;;;;;26.80;15.98;;;;;;;;;;5060699;28;20037;-75
2024/03/10 03:22:46;;;;;;;25.90;16.95;;;;;;;;;;5064707;28;20121;-75
2024/03/10 03:25:13;;;;;;;26.65;15.88;;;;;;;;;;5053065;28;20057;-74
2024/03/10 03:27:41;;;;;;;26.00;16.58;;;;;;;;;;5058918;28;20040;-75
2024/03/10 03:30:07;;;;;;;27.80;17.08;;;;;;;;;;5064938;28;20142;-74
2024/03/10 03:32:34;;;;;;;24.58;16.85;;;;;;;;;;5060248;28;20123;-75
2024/03/10 03:35:01;;;;;;;23.60;16.02;;;;;;;;;;5056835;28;20497;-74
2024/03/10 03:37:27;;;;;;;27.48;17.98;;;;;;;;;;5055538;28;20056;-74
2024/03/10 03:39:54;;;;;;;24.92;15.43;;;;;;;;;;5060146;28;20123;-74
2024/03/10 03:42:20;;;;;;;25.63;16.90;;;;;;;;;;5059378;28;20053;-75
2024/03/10 03:44:49;;;;;;;24.65;16.65;;;;;;;;;;5058189;28;20083;-75
2024/03/10 03:47:17;;;;;;;27.30;17.40;;;;;;;;;;5078092;28;20040;-74
2024/03/10 03:49:46;;;;;;;26.60;17.27;;;;;;;;;;5059252;28;20079;-74
2024/03/10 03:52:13;;;;;;;26.45;16.98;;;;;;;;;;5060907;28;20059;-74
2024/03/10 03:54:41;;;;;;;28.58;17.85;;;;;;;;;;5057090;28;20517;-74
2024/03/10 03:57:08;;;;;;;25.38;15.82;;;;;;;;;;5060979;28;20055;-74
2024/03/10 03:59:37;;;;;;;25.77;16.35;;;;;;;;;;5062974;28;20147;-74
2024/03/10 04:02:03;;;;;;;27.55;17.23;;;;;;;;;;5056672;28;20136;-74
2024/03/10 04:04:30;;;;;;;28.48;17.50;;;;;;;;;;5059263;28;20041;-75
2024/03/10 04:06:57;;;;;;;26.52;17.08;;;;;;;;;;5056279;28;20048;-74
2024/03/10 04:09:23;;;;;;;21.85;14.90;;;;;;;;;;5058812;28;20450;-74
2024/03/10 04:11:50;;;;;;;24.40;15.75;;;;;;;;;;5062812;28;20140;-74
2024/03/10 04:14:16;;;;;;;30.40;17.13;;;;;;;;;;5061736;28;20060;-74
2024/03/10 04:16:43;;;;;;;26.15;16.65;;;;;;;;;;5064703;28;20606;-74
2024/03/10 04:19:09;;;;;;;31.20;17.77;;;;;;;;;;5059619;28;20048;-74
2024/03/10 04:21:36;;;;;;;32.05;17.48;;;;;;;;;;5062142;28;20098;-74
2024/03/10 04:24:07;;;;;;;25.67;16.65;;;;;;;;;;5060495;28;20043;-75
2024/03/10 04:26:34;;;;;;;30.65;17.33;;;;;;;;;;5062003;28;20234;-74
2024/03/10 04:29:00;;;;;;;27.38;16.25;;;;;;;;;;5063873;28;20102;-74
2024/03/10 04:31:27;;;;;;;25.45;16.30;;;;;;;;;;5060193;28;20127;-74
2024/03/10 04:33:54;;;;;;;26.90;17.02;;;;;;;;;;5065033;28;20102;-73
2024/03/10 04:36:21;;;;;;;26.30;17.08;;;;;;;;;;5057526;28;20048;-74
2024/03/10 04:38:47;;;;;;;24.92;16.02;;;;;;;;;;5058588;28;20052;-74
2024/03/10 04:41:13;;;;;;;27.80;17.77;;;;;;;;;;5066447;28;20084;-74
2024/03/10 04:43:40;;;;;;;28.15;17.23;;;;;;;;;;5058591;28;20464;-75
2024/03/10 04:46:07;;;;;;;27.65;17.88;;;;;;;;;;5064933;28;20067;-75
2024/03/10 04:48:33;;;;;;;25.10;16.00;;;;;;;;;;5055651;28;20139;-74
2024/03/10 04:51:00;;;;;;;27.73;16.73;;;;;;;;;;5059501;28;20320;-75
2024/03/10 04:53:26;;;;;;;27.15;16.10;;;;;;;;;;5061037;28;20052;-74
2024/03/10 04:55:52;;;;;;;23.88;16.15;;;;;;;;;;5056810;28;20138;-74
2024/03/10 04:58:19;;;;;;;29.23;17.15;;;;;;;;;;5061488;28;20105;-75
2024/03/10 05:00:45;;;;;;;25.20;15.63;;;;;;;;;;5058363;28;20055;-74
2024/03/10 05:03:12;;;;;;;28.23;16.05;;;;;;;;;;5064262;28;20469;-75
2024/03/10 05:05:38;;;;;;;22.73;14.68;;;;;;;;;;5053352;28;20062;-74
2024/03/10 05:08:05;;;;;;;25.77;16.52;;;;;;;;;;5059918;28;20152;-74
2024/03/10 05:10:31;;;;;;;24.83;15.88;;;;;;;;;;5065116;28;20113;-74
2024/03/10 05:12:59;;;;;;;28.55;17.27;;;;;;;;;;5054897;28;20052;-74
2024/03/10 05:15:26;;;;;;;27.23;15.95;;;;;;;;;;5064892;28;20094;-74
2024/03/10 05:17:52;;;;;;;27.98;17.05;;;;;;;;;;5053393;28;20064;-74
2024/03/10 05:20:21;;;;;;;26.23;16.52;;;;;;;;;;5063661;28;20052;-74
2024/03/10 05:22:48;;;;;;;25.35;16.35;;;;;;;;;;5069811;28;20553;-74
2024/03/10 05:25:14;;;;;;;27.92;16.75;;;;;;;;;;5062306;28;20051;-74
2024/03/10 05:27:41;;;;;;;27.65;17.35;;;;;;;;;;5062299;28;20098;-74
2024/03/10 05:30:08;;;;;;;27.85;16.83;;;;;;;;;;5060078;28;20049;-74
2024/03/10 05:32:35;;;;;;;25.65;17.02;;;;;;;;;;5062733;28;20048;-74
2024/03/10 05:35:05;;;;;;;25.90;15.60;;;;;;;;;;5061896;28;20131;-74
2024/03/10 05:37:32;;;;;;;25.83;15.27;;;;;;;;;;5056690;28;20514;-74
2024/03/10 05:39:58;;;;;;;28.05;16.27;;;;;;;;;;5063992;28;20135;-74
2024/03/10 05:42:25;;;;;;;27.67;16.27;;;;;;;;;;5057965;28;20045;-74
2024/03/10 05:44:51;;;;;;;25.65;16.15;;;;;;;;;;5064568;28;20045;-73
2024/03/10 05:47:18;;;;;;;28.70;17.83;;;;;;;;;;5060796;28;20052;-73
2024/03/10 05:49:44;;;;;;;26.38;15.13;;;;;;;;;;5059376;28;20045;-72
2024/03/10 05:52:11;;;;;;;29.23;17.17;;;;;;;;;;5065721;28;20052;-73
2024/03/10 05:54:39;;;;;;;28.88;15.93;;;;;;;;;;5057893;28;20045;-73
2024/03/10 05:57:05;;;;;;;27.50;16.48;;;;;;;;;;5066166;28;20127;-73
2024/03/10 05:59:31;;;;;;;30.88;18.15;;;;;;;;;;5061298;28;20129;-72
2024/03/10 06:01:58;;;;;;;27.65;16.75;;;;;;;;;;5058262;28;20051;-72
2024/03/10 06:04:25;;;;;;;29.50;17.92;;;;;;;;;;5065454;28;20060;-73
2024/03/10 06:06:51;;;;;;;30.67;18.50;;;;;;;;;;5061560;28;20052;-72
2024/03/10 06:09:18;;;;;;;26.65;16.48;;;;;;;;;;5062658;28;20052;-73
2024/03/10 06:11:44;;;;;;;24.35;15.55;;;;;;;;;;5064296;28;20641;-73
2024/03/10 06:14:11;;;;;;;26.77;16.67;;;;;;;;;;5064956;28;20102;-73
2024/03/10 06:16:38;;;;;;;29.08;16.42;;;;;;;;;;5063855;28;20388;-72
2024/03/10 06:27:02;;;;;;;29.08;17.45;;;;;;;;;;5066496;28;20114;-73
2024/03/10 06:29:28;;;;;;;28.48;16.10;;;;;;;;;;5058936;28;20420;-74
2024/03/10 06:31:56;;;;;;;27.52;16.40;;;;;;;;;;5058090;28;20068;-73
2024/03/10 06:34:23;;;;;;;30.38;17.08;;;;;;;;;;5061690;28;20059;-73
2024/03/10 06:36:49;;;;;;;29.20;17.77;;;;;;;;;;5057208;28;20148;-73
2024/03/10 06:39:19;;;;;;;28.85;16.17;;;;;;;;;;5065801;28;20048;-73
2024/03/10 06:41:49;;;;;;;26.95;16.45;;;;;;;;;;5058758;28;20048;-72
2024/03/10 06:44:17;;;;;;;26.17;15.73;;;;;;;;;;5060312;28;20076;-73
2024/03/10 06:46:44;;;;;;;28.73;16.55;;;;;;;;;;5058496;28;20044;-73
2024/03/10 06:49:10;;;;;;;28.77;17.25;;;;;;;;;;5062782;28;20118;-73
2024/03/10 06:51:37;;;;;;;27.98;16.20;;;;;;;;;;5064212;28;20059;-73
2024/03/10 06:54:03;;;;;;;29.27;17.40;;;;;;;;;;5055660;28;20068;-73
2024/03/10 06:56:32;;;;;;;29.25;15.40;;;;;;;;;;5062179;28;20045;-73
2024/03/10 06:58:59;;;;;;;27.98;16.02;;;;;;;;;;5050137;28;20049;-73
2024/03/10 07:01:25;;;;;;;25.40;15.73;;;;;;;;;;5064660;28;20049;-73
2024/03/10 07:03:52;;;;;;;24.02;14.70;;;;;;;;;;5065491;28;20137;-73
2024/03/10 07:06:21;;;;;;;28.15;16.05;;;;;;;;;;5055014;28;20049;-73
2024/03/10 07:08:48;;;;;;;28.27;17.30;;;;;;;;;;5063563;28;20040;-73
2024/03/10 07:11:15;;;;;;;26.98;16.92;;;;;;;;;;5055661;28;20130;-72
2024/03/10 07:13:41;;;;;;;26.67;16.65;;;;;;;;;;5058967;28;20167;-71
2024/03/10 07:16:07;;;;;;;26.70;17.08;;;;;;;;;;5060365;28;20102;-73
2024/03/10 07:18:35;;;;;;;28.98;16.75;;;;;;;;;;5064061;28;20143;-73
2024/03/10 07:21:02;;;;;;;24.98;16.10;;;;;;;;;;5061355;28;20049;-73
2024/03/10 07:23:29;;;;;;;22.73;14.25;;;;;;;;;;5057347;28;20563;-73
2024/03/10 07:25:55;;;;;;;27.35;16.75;;;;;;;;;;5061120;28;20051;-73
2024/03/10 07:28:22;;;;;;;26.38;14.45;;;;;;;;;;5054559;28;20102;-73
2024/03/10 07:30:48;;;;;;;27.25;16.48;;;;;;;;;;5063935;28;20048;-73
2024/03/10 07:33:15;;;;;;;25.85;15.25;;;;;;;;;;5064775;28;20044;-73
2024/03/10 07:35:41;;;;;;;26.83;15.73;;;;;;;;;;5057971;28;20052;-73
2024/03/10 07:38:08;;;;;;;24.15;15.38;;;;;;;;;;5061414;28;20283;-73
2024/03/10 07:40:34;;;;;;;28.13;16.08;;;;;;;;;;5052947;28;20164;-73
2024/03/10 07:43:00;;;;;;;27.10;15.63;;;;;;;;;;5060142;28;20177;-73
2024/03/10 07:45:27;;;;;;;27.50;16.60;;;;;;;;;;5057423;28;20816;-73
2024/03/10 07:47:53;;;;;;;27.23;16.23;;;;;;;;;;5058122;28;20093;-73
2024/03/10 07:50:20;;;;;;;25.45;14.80;;;;;;;;;;5065084;28;20063;-73
2024/03/10 07:52:47;;;;;;;24.88;15.13;;;;;;;;;;5056824;28;20145;-72
2024/03/10 07:55:16;;;;;;;24.92;14.55;;;;;;;;;;5056645;28;20056;-73
2024/03/10 07:57:42;;;;;;;26.42;16.13;;;;;;;;;;5055006;28;20190;-73
2024/03/10 08:00:13;;;;;;;21.80;14.27;;;;;;;;;;5061420;28;20130;-73
2024/03/10 08:02:41;;;;;;;24.75;14.32;;;;;;;;;;5063831;28;20105;-73
2024/03/10 08:05:10;;;;;;;25.17;15.07;;;;;;;;;;5059294;28;20068;-74
2024/03/10 08:07:38;;;;;;;25.35;15.98;;;;;;;;;;5059650;28;20074;-75
2024/03/10 08:10:06;;;;;;;22.77;14.52;;;;;;;;;;5062449;28;20056;-74
2024/03/10 08:12:32;;;;;;;23.73;14.20;;;;;;;;;;5066179;28;20144;-73
2024/03/10 08:14:59;;;;;;;23.10;14.75;;;;;;;;;;5061167;28;20116;-74
2024/03/10 08:17:25;;;;;;;20.83;12.48;;;;;;;;;;5052817;28;20056;-74
2024/03/10 08:19:51;;;;;;;21.20;14.60;;;;;;;;;;5060261;28;20059;-74
2024/03/10 08:22:18;;;;;;;26.00;15.35;;;;;;;;;;5058830;28;20392;-74
2024/03/10 08:24:45;;;;;;;22.45;14.48;;;;;;;;;;5065568;28;20040;-74
2024/03/10 08:27:12;;;;;;;24.25;15.45;;;;;;;;;;5058986;28;20055;-73
2024/03/10 08:29:38;;;;;;;21.30;13.73;;;;;;;;;;5061034;28;20049;-74
2024/03/10 08:32:06;;;;;;;24.52;14.73;;;;;;;;;;5057694;28;20056;-74
2024/03/10 08:34:32;;;;;;;22.48;14.73;;;;;;;;;;5058818;28;20055;-74
2024/03/10 08:36:59;;;;;;;22.35;14.15;;;;;;;;;;5063781;28;20064;-73
2024/03/10 08:39:28;;;;;;;25.00;15.50;;;;;;;;;;5059777;28;20044;-74
2024/03/10 08:41:55;;;;;;;27.33;15.90;;;;;;;;;;5065097;28;20036;-74
2024/03/10 08:44:22;;;;;;;26.42;15.55;;;;;;;;;;5059063;28;20542;-74
2024/03/10 08:46:50;;;;;;;21.30;14.23;;;;;;;;;;5060068;28;20136;-74
2024/03/10 08:49:17;;;;;;;25.05;15.40;;;;;;;;;;5060866;28;20048;-74
2024/03/10 08:51:43;;;;;;;23.55;14.80;;;;;;;;;;5057139;28;20101;-74
2024/03/10 08:54:10;;;;;;;21.92;14.65;;;;;;;;;;5067511;28;20052;-73
2024/03/10 08:56:39;;;;;;;22.52;15.35;;;;;;;;;;5051911;28;20496;-74
2024/03/10 08:59:11;;;;;;;21.98;13.70;;;;;;;;;;5068851;28;20128;-74
2024/03/10 09:01:38;;;;;;;21.92;14.38;;;;;;;;;;5056897;28;20106;-74
2024/03/10 09:04:07;;;;;;;26.23;14.98;;;;;;;;;;5074128;28;20048;-74
2024/03/10 09:06:36;;;;;;;22.95;15.25;;;;;;;;;;5065057;28;20049;-74
2024/03/10 09:09:05;;;;;;;22.17;14.40;;;;;;;;;;5056232;28;20094;-75
2024/03/10 09:11:32;;;;;;;20.60;14.27;;;;;;;;;;5057620;28;20366;-74
2024/03/10 09:13:58;;;;;;;26.90;15.82;;;;;;;;;;5049283;28;20509;-74
2024/03/10 09:16:25;;;;;;;22.27;14.10;;;;;;;;;;5064731;28;20049;-72
2024/03/10 09:18:52;;;;;;;22.70;15.85;;;;;;;;;;5063016;28;20098;-72
2024/03/10 09:21:18;;;;;;;23.05;15.55;;;;;;;;;;5067918;28;20056;-72
2024/03/10 09:23:45;;;;;;;24.45;15.45;;;;;;;;;;5067847;28;20090;-72
2024/03/10 09:26:13;;;;;;;26.05;15.82;;;;;;;;;;5063180;28;20443;-71
2024/03/10 09:28:44;;;;;;;23.73;15.70;;;;;;;;;;5064370;28;20067;-73
2024/03/10 09:31:14;;;;;;;21.23;14.35;;;;;;;;;;5059849;28;20045;-72
2024/03/10 09:33:44;;;;;;;25.20;15.38;;;;;;;;;;5068492;28;20488;-72
2024/03/10 09:36:11;;;;;;;23.90;14.82;;;;;;;;;;5068796;28;20048;-72
2024/03/10 09:38:37;;;;;;;26.42;15.20;;;;;;;;;;5060038;28;20075;-73
2024/03/10 09:41:08;;;;;;;22.70;15.07;;;;;;;;;;5064106;28;20053;-72
2024/03/10 09:43:37;;;;;;;24.52;15.43;;;;;;;;;;5059429;28;20056;-73
2024/03/10 09:46:04;;;;;;;26.25;15.75;;;;;;;;;;5068584;28;20136;-72
2024/03/10 09:48:32;;;;;;;21.73;14.57;;;;;;;;;;5061751;28;20076;-73
2024/03/10 09:50:58;;;;;;;23.13;15.63;;;;;;;;;;5066340;28;20049;-72
2024/03/10 09:53:28;;;;;;;23.13;15.85;;;;;;;;;;5067058;28;20044;-72
2024/03/10 09:55:54;;;;;;;22.63;14.57;;;;;;;;;;5054807;28;20045;-73
2024/03/10 09:58:31;;;;;;;23.10;15.05;;;;;;;;;;5063943;28;20102;-72
2024/03/10 10:01:11;;;;;;;23.00;14.85;;;;;;;;;;5058473;28;20045;-72
2024/03/10 10:03:41;;;;;;;22.52;14.52;;;;;;;;;;5067887;28;20045;-72
2024/03/10 10:06:08;;;;;;;25.40;15.32;;;;;;;;;;5061625;28;20048;-73
2024/03/10 10:08:34;;;;;;;25.27;15.63;;;;;;;;;;5066955;28;20055;-70
2024/03/10 10:11:01;;;;;;;24.25;16.00;;;;;;;;;;5060481;28;20048;-71
2024/03/10 10:13:28;;;;;;;20.13;13.75;;;;;;;;;;5061223;28;20139;-72
2024/03/10 10:15:56;;;;;;;23.90;15.27;;;;;;;;;;5053137;28;20041;-72
2024/03/10 10:18:23;;;;;;;25.50;16.33;;;;;;;;;;5061546;28;20052;-72
2024/03/10 10:20:53;;;;;;;23.38;14.88;;;;;;;;;;5054776;28;20075;-72
2024/03/10 10:23:23;;;;;;;24.52;16.38;;;;;;;;;;5059405;28;20063;-72
2024/03/10 10:25:51;;;;;;;24.88;15.80;;;;;;;;;;5055347;28;20393;-74
2024/03/10 10:28:18;;;;;;;23.30;16.15;;;;;;;;;;5066562;28;20045;-74
2024/03/10 10:30:44;;;;;;;29.17;17.00;;;;;;;;;;5046913;28;20052;-73
2024/03/10 10:33:12;;;;;;;23.23;15.05;;;;;;;;;;5067400;28;20076;-74
2024/03/10 10:35:39;;;;;;;;;;;;;;;;;;5045321;28;20051;-74
2024/03/10 10:38:12;;;;;;;24.15;15.73;;;;;;;;;;5060460;28;20047;-74
2024/03/10 10:40:40;;;;;;;25.20;17.02;;;;;;;;;;5046280;28;20055;-74
2024/03/10 10:43:06;;;;;;;24.58;15.65;;;;;;;;;;5067776;28;20048;-73
2024/03/10 10:45:33;;;;;;;27.55;17.77;;;;;;;;;;5065960;28;20055;-74
2024/03/10 10:48:01;;;;;;;23.27;16.25;;;;;;;;;;5058552;28;20040;-73
2024/03/10 10:50:34;;;;;;;22.67;15.23;;;;;;;;;;5067305;28;20504;-73
2024/03/10 10:53:01;;;;;;;21.85;15.18;;;;;;;;;;5060003;28;20052;-74
2024/03/10 10:55:28;;;;;;;22.98;15.60;;;;;;;;;;5060420;28;20071;-74
2024/03/10 10:57:58;;;;;;;24.25;16.60;;;;;;;;;;5064742;28;20048;-74
2024/03/10 11:00:28;;;;;;;20.98;15.05;;;;;;;;;;5080341;28;20059;-74
2024/03/10 11:03:14;;;;;;;24.73;14.70;;;;;;;;;;5070056;28;20040;-73
2024/03/10 11:05:41;;;;;;;22.10;14.98;;;;;;;;;;5058820;28;20688;-74
2024/03/10 11:08:08;;;;;;;26.15;16.63;;;;;;;;;;5051165;28;20059;-74
2024/03/10 11:10:48;;;;;;;22.98;15.30;;;;;;;;;;5059115;28;20099;-73
2024/03/10 11:13:17;;;;;;;22.35;15.25;;;;;;;;;;5067322;28;20056;-74
2024/03/10 11:15:44;;;;;;;22.98;15.52;;;;;;;;;;5058054;28;20056;-73
2024/03/10 11:18:26;;;;;;;20.90;14.75;;;;;;;;;;5066180;28;20147;-73
2024/03/10 11:20:57;;;;;;;21.75;15.63;;;;;;;;;;5061812;28;20044;-73
2024/03/10 11:23:36;;;;;;;28.35;15.32;;;;;;;;;;5059752;28;20591;-73
2024/03/10 11:26:07;;;;;;;22.45;15.18;;;;;;;;;;5056519;28;20044;-74
2024/03/10 11:28:46;;;;;;;20.05;14.43;;;;;;;;;;5060365;28;20437;-73
2024/03/10 11:31:14;;;;;;;21.00;14.55;;;;;;;;;;5066157;28;20499;-73
2024/03/10 11:33:40;;;;;;;23.77;15.90;;;;;;;;;;5057822;28;20481;-74
2024/03/10 11:36:07;;;;;;;25.30;15.60;;;;;;;;;;5062345;28;20513;-74
2024/03/10 11:38:33;;;;;;;22.27;15.90;;;;;;;;;;5055891;28;20052;-74
2024/03/10 11:41:01;;;;;;;22.25;14.98;;;;;;;;;;5065288;28;20048;-75
2024/03/10 11:43:28;;;;;;;19.57;12.93;;;;;;;;;;5065047;28;20461;-73
2024/03/10 11:45:56;;;;;;;;;;;;;;;;;;5057238;28;20052;-73
2024/03/10 11:48:23;;;;;;;21.23;15.73;;;;;;;;;;5059064;28;20420;-74
2024/03/10 11:50:54;;;;;;;22.77;15.40;;;;;;;;;;5054899;28;20055;-73
2024/03/10 11:53:21;;;;;;;;;;;;;;;;;;5064285;28;20098;-73
2024/03/10 11:55:55;;;;;;;22.30;15.38;;;;;;;;;;5062838;28;19924;-74
2024/03/10 11:58:22;;;;;;;20.80;14.80;;;;;;;;;;5065543;28;20041;-73
2024/03/10 12:00:48;;;;;;;21.25;14.90;;;;;;;;;;5065489;28;20080;-74
2024/03/10 12:03:15;;;;;;;18.50;13.38;;;;;;;;;;5073137;28;20052;-73
2024/03/10 12:05:43;;;;;;;26.17;16.77;;;;;;;;;;5060315;28;20048;-73
2024/03/10 12:08:09;;;;;;;22.55;15.90;;;;;;;;;;5060686;28;20469;-74
2024/03/10 12:10:36;;;;;;;22.10;16.10;;;;;;;;;;5066346;28;20766;-74
2024/03/10 12:13:03;;;;;;;25.23;16.67;;;;;;;;;;5052187;28;20102;-73
2024/03/10 12:15:29;;;;;;;23.15;16.17;;;;;;;;;;5059157;28;20556;-73
2024/03/10 12:17:57;;;;;;;21.65;15.45;;;;;;;;;;5056757;28;20044;-74
2024/03/10 12:20:23;;;;;;;24.70;15.18;;;;;;;;;;5049640;28;20051;-73
2024/03/10 12:22:50;;;;;;;24.98;16.65;;;;;;;;;;5052978;28;20386;-74
2024/03/10 12:25:20;;;;;;;23.98;16.80;;;;;;;;;;5059812;28;20040;-74
2024/03/10 12:27:47;;;;;;;24.02;16.55;;;;;;;;;;5055004;28;20724;-74
2024/03/10 12:30:16;;;;;;;25.67;17.42;;;;;;;;;;5063232;28;20048;-74
2024/03/10 12:32:43;;;;;;;;;;;;;;;;;;5059395;28;20055;-73
2024/03/10 12:35:10;;;;;;;22.45;16.73;;;;;;;;;;5065420;28;19924;-74
2024/03/10 12:37:43;;;;;;;24.42;16.92;;;;;;;;;;5063526;28;20040;-73
2024/03/10 12:40:14;;;;;;;21.02;15.13;;;;;;;;;;5070383;28;20093;-73
2024/03/10 12:42:43;;;;;;;22.52;16.60;;;;;;;;;;5066536;28;20048;-74
2024/03/10 12:45:10;;;;;;;25.60;18.05;;;;;;;;;;5066767;28;20048;-73
2024/03/10 12:47:37;;;;;;;22.27;16.92;;;;;;;;;;5079951;28;20048;-74
2024/03/10 12:50:07;;;;;;;22.17;16.30;;;;;;;;;;5069059;28;20527;-73
2024/03/10 12:52:34;;;;;;;22.27;15.43;;;;;;;;;;5068926;28;20423;-73
2024/03/10 12:55:01;;;;;;;24.67;17.08;;;;;;;;;;5062426;28;20056;-73
2024/03/10 12:57:27;;;;;;;26.27;18.25;;;;;;;;;;5067985;28;20087;-73
2024/03/10 12:59:53;;;;;;;25.00;18.40;;;;;;;;;;5055744;28;20534;-73
2024/03/10 13:02:20;;;;;;;24.15;18.25;;;;;;;;;;5048740;28;20635;-73
2024/03/10 13:04:48;;;;;;;27.17;18.50;;;;;;;;;;5065414;28;20059;-75
2024/03/10 13:07:16;;;;;;;27.42;18.67;;;;;;;;;;5059999;28;20049;-74
2024/03/10 13:09:42;;;;;;;23.33;17.87;;;;;;;;;;5067685;28;20525;-74
2024/03/10 13:12:10;;;;;;;25.35;17.80;;;;;;;;;;5060999;28;20779;-74
2024/03/10 13:14:37;;;;;;;25.52;18.58;;;;;;;;;;5061653;28;20094;-73
2024/03/10 13:17:03;;;;;;;27.17;19.08;;;;;;;;;;5069263;28;20048;-74
2024/03/10 13:19:30;;;;;;;25.75;18.75;;;;;;;;;;5045390;28;20049;-74
2024/03/10 13:21:56;;;;;;;24.90;18.80;;;;;;;;;;5047260;28;20069;-73
2024/03/10 13:24:23;;;;;;;24.30;17.20;;;;;;;;;;5059639;28;20554;-74
2024/03/10 13:26:49;;;;;;;24.38;17.25;;;;;;;;;;5059957;28;20049;-74
2024/03/10 13:29:16;;;;;;;24.52;18.30;;;;;;;;;;5064743;28;20048;-74
2024/03/10 13:31:44;;;;;;;27.88;18.90;;;;;;;;;;5066650;28;20087;-73
2024/03/10 13:34:10;;;;;;;28.58;20.02;;;;;;;;;;5061022;28;20098;-74
2024/03/10 13:36:37;;;;;;;28.52;19.58;;;;;;;;;;5055961;28;20036;-74
2024/03/10 13:39:04;;;;;;;25.88;17.85;;;;;;;;;;5064531;28;20848;-73
2024/03/10 13:41:30;;;;;;;26.15;18.70;;;;;;;;;;5058659;28;20049;-74
2024/03/10 13:43:56;;;;;;;29.10;19.63;;;;;;;;;;5066637;28;20052;-75
2024/03/10 13:46:23;;;;;;;25.55;19.45;;;;;;;;;;5067591;28;20415;-74
2024/03/10 13:48:49;;;;;;;28.05;19.70;;;;;;;;;;5062473;28;20060;-74
2024/03/10 13:51:16;;;;;;;27.80;19.40;;;;;;;;;;5067588;28;20728;-74
2024/03/10 13:53:42;;;;;;;26.23;19.58;;;;;;;;;;5053561;28;20037;-73
2024/03/10 13:56:10;;;;;;;30.42;21.45;;;;;;;;;;5064095;28;20137;-73
2024/03/10 13:58:37;;;;;;;24.77;17.77;;;;;;;;;;5062218;28;20055;-74
2024/03/10 14:01:05;;;;;;;27.45;20.17;;;;;;;;;;5068054;28;20057;-74
2024/03/10 14:03:32;;;;;;;29.77;21.40;;;;;;;;;;5072714;28;20057;-74
2024/03/10 14:05:58;;;;;;;27.45;19.90;;;;;;;;;;5050359;28;20052;-74
2024/03/10 14:08:25;;;;;;;29.83;21.65;;;;;;;;;;5056025;28;20488;-74
2024/03/10 14:10:56;;;;;;;31.33;22.52;;;;;;;;;;5061558;28;20056;-74
2024/03/10 14:13:23;;;;;;;31.05;21.83;;;;;;;;;;5069583;28;20400;-74
2024/03/10 14:15:50;;;;;;;31.67;22.03;;;;;;;;;;5066934;28;20120;-74
2024/03/10 14:18:17;;;;;;;27.65;19.75;;;;;;;;;;5051166;28;20505;-74
2024/03/10 14:20:45;;;;;;;30.02;20.98;;;;;;;;;;5074904;28;20080;-74
2024/03/10 14:23:12;;;;;;;30.17;22.02;;;;;;;;;;5059100;28;20044;-73
2024/03/10 14:25:39;;;;;;;31.77;22.05;;;;;;;;;;5067165;28;20036;-74
2024/03/10 14:28:09;;;;;;;31.23;22.35;;;;;;;;;;5062129;28;20655;-74
2024/03/10 14:30:35;;;;;;;32.00;22.33;;;;;;;;;;5066955;28;20506;-74
2024/03/10 14:33:03;;;;;;;27.52;19.02;;;;;;;;;;5068558;28;20055;-74
2024/03/10 14:35:30;;;;;;;31.77;21.80;;;;;;;;;;5054135;28;20054;-74
2024/03/10 14:37:56;;;;;;;33.88;24.00;;;;;;;;;;5066815;28;20618;-74
2024/03/10 14:40:23;;;;;;;28.92;22.13;;;;;;;;;;5062659;28;20080;-74
2024/03/10 14:42:51;;;;;;;29.58;21.15;;;;;;;;;;5071795;28;20135;-73
2024/03/10 14:45:18;;;;;;;30.98;21.73;;;;;;;;;;5076457;28;20044;-74